Time;durP1;ratioP1;P1;durP2;ratioP2;P2;SDS_P1;SDS_P2;PMS_P1;PMS_P2;Temp;Humidity;BMP_temperature;BMP_pressure;BME280_temperature;BME280_humidity;BME280_pressure;Samples;Min_cycle;Max_cycle;Signal;HPM_P1;HPM_P2
2022/07/11 14:51:15;;;;;;;3.80;2.00;;;;;;;27.23;35.22;99145.25;6114047;22;1396953;-65
2022/07/11 14:53:42;;;;;;;5.72;2.10;;;;;;;27.08;34.46;99150.00;6211202;23;20171;-66
2022/07/11 14:56:09;;;;;;;4.72;2.45;;;;;;;26.88;33.93;99150.22;6211066;23;20199;-62
2022/07/11 14:58:36;;;;;;;13.48;3.13;;;;;;;26.92;34.91;99147.94;6210445;23;20175;-61
2022/07/11 15:01:03;;;;;;;37.08;5.70;;;;;;;26.77;34.29;99156.94;6210750;23;20551;-65
2022/07/11 15:03:39;;;;;;;11.60;3.50;;;;;;;26.91;34.31;99151.56;6210726;23;20176;-61
2022/07/11 15:06:07;;;;;;;9.45;2.42;;;;;;;26.91;34.53;99152.41;6210094;23;20211;-62
2022/07/11 15:14:04;;;;;;;21.42;3.45;;;;;;;26.80;34.13;99156.50;6209403;23;20529;-64
2022/07/11 15:16:31;;;;;;;5.47;2.08;;;;;;;26.70;33.93;99158.00;6209588;23;20175;-57
2022/07/11 15:18:58;;;;;;;36.67;4.05;;;;;;;26.70;34.86;99155.38;6210383;23;20176;-58
2022/07/11 15:21:25;;;;;;;4.68;2.00;;;;;;;26.63;33.87;99152.81;6210526;23;20617;-63
2022/07/11 15:23:54;;;;;;;5.40;1.88;;;;;;;26.57;34.52;99161.53;6210664;23;20223;-60
2022/07/11 15:26:22;;;;;;;147.02;13.13;;;;;;;26.57;34.14;99162.34;6210309;23;20203;-63
2022/07/11 15:28:49;;;;;;;144.95;15.45;;;;;;;26.49;34.00;99153.91;6211116;23;20451;-63
2022/07/11 15:31:16;;;;;;;13.93;2.40;;;;;;;26.39;34.59;99155.19;6209976;23;20186;-63
2022/07/11 15:33:45;;;;;;;4.78;2.20;;;;;;;26.24;34.27;99161.72;6211176;23;20172;-62
2022/07/11 15:36:11;;;;;;;41.60;4.43;;;;;;;26.25;35.01;99164.13;6210748;23;20195;-65
2022/07/11 15:38:39;;;;;;;14.60;2.55;;;;;;;26.20;34.54;99166.56;6210314;23;20751;-61
2022/07/11 15:41:07;;;;;;;27.40;3.08;;;;;;;26.15;35.24;99174.25;6210193;23;20203;-60
2022/07/11 15:43:34;;;;;;;28.33;4.55;;;;;;;26.03;34.53;99168.06;6209914;23;20535;-59
2022/07/11 15:46:01;;;;;;;9.32;2.40;;;;;;;26.06;34.55;99159.78;6209688;23;20211;-59
2022/07/11 15:48:28;;;;;;;45.75;4.70;;;;;;;26.10;35.53;99174.09;6210245;23;20178;-61
2022/07/11 15:50:55;;;;;;;2.90;1.70;;;;;;;25.93;34.99;99182.44;6210385;23;20235;-60
2022/07/11 15:53:22;;;;;;;2.15;1.70;;;;;;;25.90;35.24;99180.22;6209861;23;20523;-59
2022/07/11 15:55:49;;;;;;;5.13;1.65;;;;;;;25.66;35.58;99186.13;6210332;23;20200;-59
2022/07/11 15:58:18;;;;;;;8.15;1.80;;;;;;;25.60;35.80;99179.91;6210174;23;20578;-59
2022/07/11 16:00:45;;;;;;;5.32;2.20;;;;;;;25.55;35.38;99181.53;6209727;23;20202;-60
2022/07/11 16:03:12;;;;;;;4.03;2.20;;;;;;;25.48;35.91;99179.75;6210314;23;20661;-59
2022/07/11 16:05:39;;;;;;;2.17;1.70;;;;;;;25.33;35.86;99192.22;6210158;23;20210;-60
2022/07/11 16:08:06;;;;;;;3.10;1.98;;;;;;;25.30;36.47;99188.22;6209489;23;20189;-59
2022/07/11 16:10:32;;;;;;;4.18;1.90;;;;;;;25.25;36.40;99195.09;6210198;23;20202;-60
2022/07/11 16:13:00;;;;;;;4.93;1.70;;;;;;;25.06;36.69;99189.63;6210243;23;20544;-61
2022/07/11 16:15:29;;;;;;;2.67;1.73;;;;;;;25.17;36.49;99200.53;6209919;23;20270;-61
2022/07/11 16:17:56;;;;;;;2.75;1.60;;;;;;;25.10;37.34;99197.06;6210225;23;20186;-60
2022/07/11 16:20:23;;;;;;;4.03;2.10;;;;;;;25.06;37.06;99201.91;6210184;23;20196;-61
2022/07/11 16:22:50;;;;;;;5.32;1.80;;;;;;;25.04;37.16;99201.28;6209730;23;20180;-59
2022/07/11 16:25:17;;;;;;;2.35;1.50;;;;;;;24.91;36.70;99199.50;6210371;23;20191;-61
2022/07/11 16:27:44;;;;;;;3.20;1.92;;;;;;;24.83;36.58;99202.28;6210148;23;20210;-61
2022/07/11 16:30:12;;;;;;;3.47;1.67;;;;;;;24.69;37.26;99208.50;6209635;23;20203;-61
2022/07/11 16:32:40;;;;;;;1.73;1.50;;;;;;;24.67;36.55;99213.13;6211029;23;20206;-61
2022/07/11 16:35:08;;;;;;;3.92;1.90;;;;;;;24.60;36.91;99208.69;6212162;23;20708;-60
2022/07/11 16:37:34;;;;;;;3.97;1.60;;;;;;;24.58;36.96;99213.34;6211769;23;20183;-60
2022/07/11 16:45:29;;;;;;;3.03;1.65;;;;;;;24.27;37.04;99223.47;6212184;23;20203;-60
2022/07/11 16:47:58;;;;;;;3.65;1.67;;;;;;;24.20;36.84;99222.63;6211739;23;20214;-60
2022/07/11 16:50:25;;;;;;;5.28;1.88;;;;;;;24.04;37.04;99218.56;6212191;23;20322;-60
2022/07/11 16:52:53;;;;;;;1.90;1.63;;;;;;;23.90;36.68;99222.91;6212247;23;20589;-60
2022/07/11 16:55:20;;;;;;;3.10;1.60;;;;;;;23.75;36.98;99217.03;6211982;23;20373;-60
2022/07/11 16:57:47;;;;;;;2.20;1.70;;;;;;;23.76;37.16;99219.44;6212594;23;20182;-62
2022/07/11 17:00:14;;;;;;;2.92;1.70;;;;;;;23.78;38.00;99225.28;6212398;23;20210;-60
2022/07/11 17:02:41;;;;;;;2.50;1.50;;;;;;;23.59;38.12;99229.38;6212162;23;20175;-60
2022/07/11 17:05:10;;;;;;;2.30;1.63;;;;;;;23.53;37.77;99222.28;6212197;23;20199;-60
2022/07/11 17:07:37;;;;;;;5.53;1.55;;;;;;;23.58;38.57;99217.28;6212223;23;20211;-60
2022/07/11 17:10:05;;;;;;;5.75;1.80;;;;;;;23.61;38.78;99229.16;6212105;23;20195;-61
2022/07/11 17:12:31;;;;;;;5.80;1.80;;;;;;;23.56;38.39;99234.97;6211711;23;20176;-61
2022/07/11 17:14:58;;;;;;;2.75;1.70;;;;;;;23.38;38.77;99226.78;6212024;23;20253;-61
2022/07/11 17:17:25;;;;;;;3.35;1.70;;;;;;;23.24;39.24;99236.31;6211696;23;20179;-61
2022/07/11 17:19:52;;;;;;;3.80;1.52;;;;;;;23.24;39.49;99242.38;6211580;23;20191;-60
2022/07/11 17:22:20;;;;;;;5.75;1.70;;;;;;;23.23;39.00;99238.13;6211885;23;20176;-59
2022/07/11 17:24:47;;;;;;;2.72;1.83;;;;;;;23.10;39.45;99248.47;6211775;23;20198;-60
2022/07/11 17:27:14;;;;;;;7.68;1.80;;;;;;;22.95;39.50;99245.94;6211922;23;20223;-60
2022/07/11 17:29:40;;;;;;;3.55;2.05;;;;;;;22.97;39.94;99250.94;6211689;23;20192;-60
2022/07/11 17:32:08;;;;;;;4.70;1.80;;;;;;;22.85;40.17;99255.03;6211698;23;20175;-60
2022/07/11 17:34:35;;;;;;;8.77;2.23;;;;;;;22.87;40.11;99255.66;6211813;23;20208;-60
2022/07/11 17:37:03;;;;;;;7.95;2.08;;;;;;;22.76;40.48;99251.72;6211159;23;20684;-59
2022/07/11 17:39:31;;;;;;;3.83;1.80;;;;;;;22.71;41.39;99252.28;6211601;23;20252;-59
2022/07/11 17:41:58;;;;;;;3.00;1.88;;;;;;;22.68;40.76;99250.03;6211692;23;20581;-60
2022/07/11 17:44:25;;;;;;;4.40;2.00;;;;;;;22.61;41.29;99251.78;6210336;23;20669;-59
2022/07/11 17:46:52;;;;;;;8.03;2.17;;;;;;;22.57;41.55;99253.94;6208289;23;20211;-59
2022/07/11 17:49:19;;;;;;;7.23;2.43;;;;;;;22.57;41.76;99253.94;6209276;23;20587;-59
2022/07/11 17:51:47;;;;;;;3.33;2.20;;;;;;;22.37;41.39;99253.72;6209228;23;20499;-59
2022/07/11 17:54:14;;;;;;;9.45;2.40;;;;;;;22.32;42.36;99256.06;6208769;23;20401;-60
2022/07/11 17:56:45;;;;;;;4.00;2.10;;;;;;;22.27;42.20;99258.41;6209949;23;20269;-60
2022/07/11 17:59:12;;;;;;;3.05;1.90;;;;;;;22.24;42.22;99263.19;6210190;23;20198;-61
2022/07/11 18:01:39;;;;;;;5.43;2.17;;;;;;;22.12;43.33;99260.19;6210905;23;20179;-59
2022/07/11 18:04:07;;;;;;;6.97;2.10;;;;;;;22.10;43.25;99275.19;6210191;23;20174;-62
2022/07/11 18:06:34;;;;;;;2.47;2.00;;;;;;;21.99;43.37;99270.44;6211466;23;20214;-62
2022/07/11 18:09:00;;;;;;;2.80;1.97;;;;;;;22.00;43.82;99266.84;6211349;23;20176;-60
2022/07/11 18:11:27;;;;;;;2.07;1.80;;;;;;;21.81;43.66;99271.59;6212190;23;20563;-59
2022/07/11 18:13:55;;;;;;;5.47;2.20;;;;;;;21.71;43.99;99278.88;6211863;23;20176;-60
2022/07/11 18:16:22;;;;;;;2.93;1.87;;;;;;;21.68;43.81;99279.22;6210995;23;20177;-60
2022/07/11 18:18:49;;;;;;;3.20;1.80;;;;;;;21.65;44.40;99279.56;6211555;23;20183;-60
2022/07/11 18:21:16;;;;;;;3.53;2.10;;;;;;;21.57;43.89;99284.84;6211233;23;20181;-60
2022/07/11 18:23:43;;;;;;;3.50;1.87;;;;;;;21.55;44.55;99294.63;6209050;23;20180;-60
2022/07/11 18:26:09;;;;;;;3.17;2.00;;;;;;;21.56;44.15;99291.06;6210715;23;20692;-59
2022/07/11 18:28:36;;;;;;;2.20;1.80;;;;;;;21.51;44.37;99293.38;6211081;23;20182;-60
2022/07/11 18:31:04;;;;;;;2.73;1.90;;;;;;;21.45;44.45;99295.69;6210464;23;20557;-61
2022/07/11 18:33:31;;;;;;;4.73;1.80;;;;;;;21.33;44.58;99296.25;6210527;23;20213;-62
2022/07/11 18:35:58;;;;;;;9.77;2.23;;;;;;;21.24;45.20;99300.72;6211225;23;20202;-61
2022/07/11 18:38:25;;;;;;;2.97;1.70;;;;;;;21.25;45.26;99304.91;6210239;23;20615;-62
2022/07/11 18:43:58;;;;;;;4.13;1.98;;;;;;;21.25;45.51;99315.31;6209649;23;20514;-60
2022/07/11 18:46:24;;;;;;;5.20;1.90;;;;;;;21.24;45.21;99318.91;6210120;23;20180;-61
2022/07/11 18:48:51;;;;;;;3.07;1.90;;;;;;;21.15;45.34;99314.75;6210432;23;20672;-61
2022/07/11 18:51:18;;;;;;;3.57;1.80;;;;;;;21.02;45.73;99316.13;6211112;23;20369;-60
2022/07/11 18:53:45;;;;;;;5.73;1.90;;;;;;;20.99;46.22;99321.66;6209996;23;20192;-60
2022/07/11 18:56:11;;;;;;;4.17;2.17;;;;;;;20.95;46.32;99324.78;6210598;23;20205;-59
2022/07/11 18:58:38;;;;;;;3.13;2.00;;;;;;;20.90;46.01;99327.91;6210559;23;20495;-59
2022/07/11 19:01:05;;;;;;;4.33;2.07;;;;;;;20.85;46.13;99329.38;6210442;23;20746;-59
2022/07/11 19:10:14;;;;;;;3.17;1.80;;;;;;;20.58;46.74;99340.06;5094489;27;20659;-58
2022/07/11 19:12:41;;;;;;;7.03;2.00;;;;;;;20.53;46.91;99341.56;5086347;28;20196;-61
